Time;durP1;ratioP1;P1;durP2;ratioP2;P2;SDS_P1;SDS_P2;PMS_P1;PMS_P2;Temp;Humidity;BMP_temperature;BMP_pressure;BME280_temperature;BME280_humidity;BME280_pressure;Samples;Min_cycle;Max_cycle;Signal;HPM_P1;HPM_P2
2021/12/17 00:01:47;;;;;;;;;;;13.80;99.90;;;;;;5017369;28;1579;-55
2021/12/17 00:04:26;;;;;;;;;;;13.80;99.90;;;;;;5015754;28;1600;-55
2021/12/17 00:06:52;;;;;;;;;;;13.80;99.90;;;;;;5017839;28;892;-55
2021/12/17 00:09:18;;;;;;;;;;;13.80;99.90;;;;;;5017373;28;790;-55
2021/12/17 00:11:46;;;;;;;;;;;13.80;99.90;;;;;;5017471;28;856;-55
2021/12/17 00:14:20;;;;;;;;;;;13.80;99.90;;;;;;5017219;28;1906;-55
2021/12/17 00:16:47;;;;;;;;;;;13.80;99.90;;;;;;5016834;28;893;-55
2021/12/17 00:49:31;;;;;;;;;;;13.70;99.90;;;;;;5017231;28;848;-55
2021/12/17 00:52:01;;;;;;;;;;;13.70;99.90;;;;;;5017106;28;814;-55
2021/12/17 00:54:36;;;;;;;;;;;13.70;99.90;;;;;;5016766;28;1902;-55
2021/12/17 00:57:07;;;;;;;;;;;13.70;99.90;;;;;;5016873;28;931;-55
2021/12/17 00:59:33;;;;;;;;;;;13.70;99.90;;;;;;5016646;28;1055;-55
2021/12/17 01:02:00;;;;;;;;;;;13.70;99.90;;;;;;5016204;28;869;-55
2021/12/17 01:04:27;;;;;;;;;;;13.70;99.90;;;;;;5016256;28;925;-55
2021/12/17 01:06:55;;;;;;;;;;;13.70;99.90;;;;;;5016700;28;806;-55
2021/12/17 01:09:23;;;;;;;;;;;13.70;99.90;;;;;;5016348;28;854;-55
2021/12/17 01:11:52;;;;;;;;;;;13.70;99.90;;;;;;5016896;28;897;-55
2021/12/17 01:14:18;;;;;;;;;;;13.70;99.90;;;;;;5016442;28;1910;-55
2021/12/17 01:16:44;;;;;;;;;;;13.70;99.90;;;;;;4998861;28;899;-55
2021/12/17 01:24:47;;;;;;;;;;;13.70;99.90;;;;;;5016414;28;867;-55
2021/12/17 01:35:30;;;;;;;;;;;13.60;99.90;;;;;;5020488;28;1973;-55
2021/12/17 01:43:21;;;;;;;;;;;13.60;99.90;;;;;;5019893;28;937;-55
2021/12/17 01:45:48;;;;;;;;;;;13.60;99.90;;;;;;5019784;28;867;-55
2021/12/17 01:48:19;;;;;;;;;;;13.60;99.90;;;;;;5020158;28;854;-55
2021/12/17 01:56:31;;;;;;;;;;;13.60;99.90;;;;;;5019911;28;843;-56
2021/12/17 01:59:21;;;;;;;;;;;13.60;99.90;;;;;;5019990;28;823;-56
2021/12/17 02:01:49;;;;;;;;;;;13.60;99.90;;;;;;5019615;28;852;-55
2021/12/17 02:04:15;;;;;;;;;;;13.60;99.90;;;;;;5019726;28;853;-56
2021/12/17 02:06:41;;;;;;;;;;;13.60;99.90;;;;;;5019636;28;864;-56
2021/12/17 02:20:28;;;;;;;;;;;13.50;99.90;;;;;;5019419;28;849;-55
2021/12/17 02:28:47;;;;;;;;;;;13.50;99.90;;;;;;5037393;28;861;-55
2021/12/17 02:33:42;;;;;;;;;;;13.50;99.90;;;;;;5037168;28;1922;-55
2021/12/17 02:36:08;;;;;;;;;;;13.50;99.90;;;;;;5036728;28;861;-55
2021/12/17 02:38:38;;;;;;;;;;;13.50;99.90;;;;;;5037478;28;1035;-55
2021/12/17 02:46:37;;;;;;;;;;;13.40;99.90;;;;;;5029781;28;1352;-56
2021/12/17 02:49:06;;;;;;;;;;;13.40;99.90;;;;;;5037001;28;860;-55
2021/12/17 02:51:33;;;;;;;;;;;13.40;99.90;;;;;;5029140;28;860;-55
2021/12/17 02:54:00;;;;;;;;;;;13.40;99.90;;;;;;5018659;28;1910;-56
2021/12/17 02:56:28;;;;;;;;;;;13.40;99.90;;;;;;5018992;28;975;-56
2021/12/17 02:58:54;;;;;;;;;;;13.40;99.90;;;;;;5018128;28;859;-55
2021/12/17 03:01:20;;;;;;;;;;;13.40;99.90;;;;;;5018414;28;920;-55
2021/12/17 03:03:49;;;;;;;;;;;13.40;99.90;;;;;;5018442;28;849;-55
2021/12/17 03:06:15;;;;;;;;;;;13.40;99.90;;;;;;5015400;28;1242;-57
2021/12/17 03:08:42;;;;;;;;;;;13.40;99.90;;;;;;5014967;28;881;-56
2021/12/17 03:11:09;;;;;;;;;;;13.40;99.90;;;;;;5036592;28;822;-55
2021/12/17 03:13:38;;;;;;;;;;;13.40;99.90;;;;;;5035992;28;914;-55
2021/12/17 03:24:28;;;;;;;;;;;13.40;99.90;;;;;;4938294;29;819;-55
2021/12/17 03:26:55;;;;;;;;;;;13.40;99.90;;;;;;4938217;29;951;-56
2021/12/17 03:29:21;;;;;;;;;;;13.40;99.90;;;;;;4906514;29;937;-55
2021/12/17 03:31:47;;;;;;;;;;;13.30;99.90;;;;;;4938023;29;932;-55
2021/12/17 03:36:42;;;;;;;;;;;13.30;99.90;;;;;;4938134;29;893;-55
2021/12/17 03:39:08;;;;;;;;;;;13.30;99.90;;;;;;4938368;29;934;-55
2021/12/17 03:41:39;;;;;;;;;;;13.30;99.90;;;;;;4937933;29;1028;-55
2021/12/17 03:44:07;;;;;;;;;;;13.30;99.90;;;;;;4937819;29;903;-55
2021/12/17 03:46:34;;;;;;;;;;;13.30;99.90;;;;;;4937903;29;955;-55
2021/12/17 03:49:02;;;;;;;;;;;13.30;99.90;;;;;;4937944;29;965;-55
2021/12/17 03:51:30;;;;;;;;;;;13.30;99.90;;;;;;4937960;29;945;-55
2021/12/17 03:53:57;;;;;;;;;;;13.30;99.90;;;;;;4937253;29;1969;-55
2021/12/17 03:56:24;;;;;;;;;;;13.30;99.90;;;;;;4937283;29;892;-56
2021/12/17 03:58:52;;;;;;;;;;;13.30;99.90;;;;;;4987084;28;1190;-55
2021/12/17 04:01:19;;;;;;;;;;;13.30;99.90;;;;;;5016376;28;909;-55
2021/12/17 04:03:45;;;;;;;;;;;13.30;99.90;;;;;;5016263;28;831;-56
2021/12/17 04:06:11;;;;;;;;;;;13.30;99.90;;;;;;5035652;28;912;-55
2021/12/17 04:08:39;;;;;;;;;;;13.30;99.90;;;;;;5035582;28;861;-55
2021/12/17 04:11:07;;;;;;;;;;;13.30;99.90;;;;;;5035746;28;815;-55
2021/12/17 04:13:39;;;;;;;;;;;13.30;99.90;;;;;;5034946;28;983;-55
2021/12/17 04:16:09;;;;;;;;;;;13.30;99.90;;;;;;5035552;28;1895;-55
2021/12/17 04:18:41;;;;;;;;;;;13.30;99.90;;;;;;5016958;28;901;-55
2021/12/17 04:21:14;;;;;;;;;;;13.30;99.90;;;;;;5011663;28;1309;-55
2021/12/17 04:23:41;;;;;;;;;;;13.30;99.90;;;;;;5012088;28;1371;-55
2021/12/17 04:26:07;;;;;;;;;;;13.30;99.90;;;;;;5019556;28;849;-55
2021/12/17 04:28:36;;;;;;;;;;;13.30;99.90;;;;;;5015740;28;1098;-52
2021/12/17 04:31:04;;;;;;;;;;;13.30;99.90;;;;;;4992592;28;936;-54
2021/12/17 04:33:30;;;;;;;;;;;13.30;99.90;;;;;;5016630;28;1176;-54
2021/12/17 04:35:57;;;;;;;;;;;13.30;99.90;;;;;;5016741;28;1971;-53
2021/12/17 04:38:25;;;;;;;;;;;13.30;99.90;;;;;;5016905;28;1567;-53
2021/12/17 04:40:53;;;;;;;;;;;13.30;99.90;;;;;;5016600;28;1364;-53
2021/12/17 04:46:13;;;;;;;;;;;13.20;99.90;;;;;;5026878;28;1877;-53
2021/12/17 04:57:20;;;;;;;;;;;13.20;99.90;;;;;;5016859;28;825;-55
2021/12/17 04:59:46;;;;;;;;;;;13.20;99.90;;;;;;5015466;28;848;-55
2021/12/17 05:02:14;;;;;;;;;;;13.20;99.90;;;;;;5015361;28;972;-55
2021/12/17 05:04:43;;;;;;;;;;;13.20;99.90;;;;;;5016381;28;877;-55
2021/12/17 05:07:13;;;;;;;;;;;13.20;99.90;;;;;;5019956;28;897;-55
2021/12/17 05:09:50;;;;;;;;;;;13.20;99.90;;;;;;5020758;28;896;-55
2021/12/17 05:20:51;;;;;;;;;;;13.20;99.90;;;;;;4941325;29;1399;-55
2021/12/17 05:23:24;;;;;;;;;;;13.20;99.90;;;;;;4940124;29;928;-55
2021/12/17 05:25:50;;;;;;;;;;;13.20;99.90;;;;;;4941347;29;966;-55
2021/12/17 05:28:16;;;;;;;;;;;13.20;99.90;;;;;;4940464;29;1052;-56
2021/12/17 05:30:48;;;;;;;;;;;13.20;99.90;;;;;;4941221;29;940;-55
2021/12/17 05:33:15;;;;;;;;;;;13.20;99.90;;;;;;4940419;29;826;-55
2021/12/17 05:35:42;;;;;;;;;;;13.20;99.90;;;;;;4941147;29;1911;-54
2021/12/17 05:38:10;;;;;;;;;;;13.20;99.90;;;;;;4941034;29;940;-53
2021/12/17 05:40:37;;;;;;;;;;;13.20;99.90;;;;;;4941082;29;832;-55
2021/12/17 05:43:05;;;;;;;;;;;13.20;99.90;;;;;;4940996;29;1079;-55
2021/12/17 05:48:25;;;;;;;;;;;13.20;99.90;;;;;;4940759;29;893;-55
2021/12/17 05:50:58;;;;;;;;;;;13.20;99.90;;;;;;4940089;29;984;-54
2021/12/17 05:53:25;;;;;;;;;;;13.20;99.90;;;;;;4940179;29;917;-53
2021/12/17 05:55:52;;;;;;;;;;;13.20;99.90;;;;;;4964242;28;1980;-54
2021/12/17 05:58:18;;;;;;;;;;;13.20;99.90;;;;;;5019716;28;892;-55
2021/12/17 06:00:46;;;;;;;;;;;13.20;99.90;;;;;;5019829;28;810;-54
2021/12/17 06:03:13;;;;;;;;;;;13.30;99.90;;;;;;5019640;28;896;-55
2021/12/17 06:05:40;;;;;;;;;;;13.30;99.90;;;;;;5019620;28;1027;-55
2021/12/17 06:08:08;;;;;;;;;;;13.30;99.90;;;;;;5019172;28;840;-55
2021/12/17 06:10:34;;;;;;;;;;;13.40;99.90;;;;;;5019906;28;904;-55
2021/12/17 06:13:00;;;;;;;;;;;13.50;99.90;;;;;;5018699;28;841;-55
2021/12/17 06:15:26;;;;;;;;;;;13.50;99.90;;;;;;5019546;28;1910;-55
2021/12/17 06:17:52;;;;;;;;;;;13.60;99.90;;;;;;5018814;28;848;-55
2021/12/17 06:20:19;;;;;;;;;;;13.70;99.90;;;;;;5019445;28;823;-54
2021/12/17 06:22:45;;;;;;;;;;;13.80;99.90;;;;;;5019170;28;1237;-53
2021/12/17 06:25:13;;;;;;;;;;;13.90;99.90;;;;;;5018771;28;1342;-53
2021/12/17 06:27:41;;;;;;;;;;;14.00;99.90;;;;;;5019380;28;864;-53
2021/12/17 06:30:09;;;;;;;;;;;14.10;99.90;;;;;;5019103;28;778;-55
2021/12/17 06:32:35;;;;;;;;;;;14.30;99.90;;;;;;5019083;28;810;-54
2021/12/17 06:35:01;;;;;;;;;;;14.30;99.90;;;;;;5019245;28;1922;-53
2021/12/17 06:37:27;;;;;;;;;;;14.40;99.90;;;;;;5019381;28;881;-55
2021/12/17 06:39:53;;;;;;;;;;;14.40;99.90;;;;;;5018990;28;833;-55
2021/12/17 06:42:21;;;;;;;;;;;14.40;99.90;;;;;;5018951;28;856;-54
2021/12/17 06:44:48;;;;;;;;;;;14.40;99.90;;;;;;5019168;28;914;-55
2021/12/17 06:47:35;;;;;;;;;;;14.50;99.90;;;;;;5018783;28;1026;-55
2021/12/17 06:56:20;;;;;;;;;;;14.50;99.90;;;;;;4939639;29;1911;-55
2021/12/17 07:17:21;;;;;;;;;;;14.50;99.90;;;;;;5036777;28;925;-56
2021/12/17 07:33:13;;;;;;;;;;;14.40;99.90;;;;;;5017970;28;818;-55
2021/12/17 07:35:49;;;;;;;;;;;14.40;99.90;;;;;;5016827;28;1981;-54
2021/12/17 07:41:02;;;;;;;;;;;14.30;99.90;;;;;;5013915;28;896;-53
2021/12/17 07:43:37;;;;;;;;;;;14.30;99.90;;;;;;5017314;28;945;-54
2021/12/17 07:46:10;;;;;;;;;;;14.30;99.90;;;;;;5017209;28;877;-53
2021/12/17 07:48:37;;;;;;;;;;;14.30;99.90;;;;;;5016109;28;1509;-54
2021/12/17 07:51:05;;;;;;;;;;;14.30;99.90;;;;;;5017845;28;876;-53
2021/12/17 07:53:31;;;;;;;;;;;14.20;99.90;;;;;;5017671;28;825;-55
2021/12/17 07:56:00;;;;;;;;;;;14.20;99.90;;;;;;5017849;28;1902;-54
2021/12/17 07:58:28;;;;;;;;;;;14.20;99.90;;;;;;5016158;28;1002;-55
2021/12/17 08:00:56;;;;;;;;;;;14.20;99.90;;;;;;5017358;28;897;-54
2021/12/17 08:03:22;;;;;;;;;;;14.10;99.90;;;;;;5017613;28;845;-55
2021/12/17 08:05:49;;;;;;;;;;;14.10;99.90;;;;;;5017510;28;845;-53
2021/12/17 08:08:16;;;;;;;;;;;14.10;99.90;;;;;;4999659;28;930;-55
2021/12/17 08:10:42;;;;;;;;;;;14.10;99.90;;;;;;5017352;28;833;-55
2021/12/17 08:13:18;;;;;;;;;;;14.10;99.90;;;;;;5017323;28;878;-54
2021/12/17 08:16:01;;;;;;;;;;;14.00;99.90;;;;;;5016201;28;1910;-54
2021/12/17 08:18:45;;;;;;;;;;;14.00;99.90;;;;;;5016862;28;1247;-55
2021/12/17 08:31:31;;;;;;;;;;;14.10;99.90;;;;;;5035249;28;935;-53
2021/12/17 08:33:58;;;;;;;;;;;14.10;99.90;;;;;;5034132;28;1594;-54
2021/12/17 08:36:26;;;;;;;;;;;14.10;99.90;;;;;;5034881;28;1981;-55
2021/12/17 08:38:53;;;;;;;;;;;14.20;99.90;;;;;;5034294;28;884;-54
2021/12/17 08:41:20;;;;;;;;;;;14.20;99.90;;;;;;5035261;28;889;-53
2021/12/17 08:43:47;;;;;;;;;;;14.20;99.90;;;;;;5033715;28;978;-53
2021/12/17 08:46:13;;;;;;;;;;;14.20;99.90;;;;;;5034895;28;871;-53
2021/12/17 08:48:39;;;;;;;;;;;14.20;99.90;;;;;;5033715;28;1539;-53
2021/12/17 08:51:07;;;;;;;;;;;14.30;99.90;;;;;;5014563;28;865;-54
2021/12/17 08:53:36;;;;;;;;;;;14.20;99.90;;;;;;5014329;28;1154;-55
2021/12/17 08:56:04;;;;;;;;;;;14.30;99.90;;;;;;5014624;28;1983;-55
2021/12/17 08:58:30;;;;;;;;;;;14.20;99.90;;;;;;5016204;28;1430;-55
2021/12/17 09:00:58;;;;;;;;;;;14.20;99.90;;;;;;4998888;28;924;-55
2021/12/17 09:03:24;;;;;;;;;;;14.30;99.90;;;;;;5016936;28;884;-53
2021/12/17 09:05:50;;;;;;;;;;;14.20;99.90;;;;;;5017037;28;883;-53
2021/12/17 09:08:16;;;;;;;;;;;14.30;99.90;;;;;;5012839;28;907;-55
2021/12/17 09:10:45;;;;;;;;;;;14.30;99.90;;;;;;5034778;28;881;-55
2021/12/17 09:13:12;;;;;;;;;;;14.30;99.90;;;;;;5034898;28;856;-55
2021/12/17 09:15:39;;;;;;;;;;;14.30;99.90;;;;;;5012082;28;1976;-55
2021/12/17 09:18:06;;;;;;;;;;;14.30;99.90;;;;;;5016024;28;891;-55
2021/12/17 09:20:33;;;;;;;;;;;14.30;99.90;;;;;;5013301;28;983;-53
2021/12/17 09:23:01;;;;;;;;;;;14.30;99.90;;;;;;5011704;28;1210;-53
2021/12/17 09:25:28;;;;;;;;;;;14.30;99.90;;;;;;5016415;28;825;-54
2021/12/17 09:28:00;;;;;;;;;;;14.30;99.90;;;;;;4980119;28;1009;-55
2021/12/17 09:30:27;;;;;;;;;;;14.30;99.90;;;;;;5016679;28;859;-55
2021/12/17 09:32:53;;;;;;;;;;;14.20;99.90;;;;;;5016485;28;903;-55
2021/12/17 09:35:21;;;;;;;;;;;14.20;99.90;;;;;;5016413;28;1914;-55
2021/12/17 09:37:48;;;;;;;;;;;14.20;99.90;;;;;;5016364;28;801;-55
2021/12/17 09:40:14;;;;;;;;;;;14.20;99.90;;;;;;5016464;28;850;-53
2021/12/17 09:42:43;;;;;;;;;;;14.20;99.90;;;;;;5016425;28;896;-53
2021/12/17 09:45:09;;;;;;;;;;;14.20;99.90;;;;;;5016361;28;872;-55
2021/12/17 09:47:36;;;;;;;;;;;14.20;99.90;;;;;;5016536;28;908;-55
2021/12/17 09:50:03;;;;;;;;;;;14.20;99.90;;;;;;5015382;28;952;-55
2021/12/17 09:52:31;;;;;;;;;;;14.20;99.90;;;;;;5018652;28;822;-55
2021/12/17 09:54:57;;;;;;;;;;;14.20;99.90;;;;;;5020119;28;1968;-55
2021/12/17 09:57:25;;;;;;;;;;;14.20;99.90;;;;;;5019803;28;890;-55
2021/12/17 09:59:52;;;;;;;;;;;14.20;99.90;;;;;;5019791;28;860;-55
2021/12/17 10:02:19;;;;;;;;;;;14.20;99.90;;;;;;5019810;28;840;-55
2021/12/17 10:04:45;;;;;;;;;;;14.20;99.90;;;;;;5019770;28;956;-54
2021/12/17 10:07:19;;;;;;;;;;;14.20;99.90;;;;;;5019286;28;1000;-55
2021/12/17 10:09:54;;;;;;;;;;;14.20;99.90;;;;;;5015650;28;875;-55
2021/12/17 10:12:23;;;;;;;;;;;14.10;99.90;;;;;;5019676;28;817;-55
2021/12/17 10:15:08;;;;;;;;;;;14.10;99.90;;;;;;5018165;28;1914;-55
2021/12/17 10:18:01;;;;;;;;;;;14.10;99.90;;;;;;5019072;28;1099;-55
2021/12/17 10:20:34;;;;;;;;;;;14.10;99.90;;;;;;5019770;28;802;-55
2021/12/17 10:22:59;;;;;;;;;;;14.10;99.90;;;;;;5033751;28;1067;-54
2021/12/17 10:25:26;;;;;;;;;;;14.10;99.90;;;;;;5037420;28;909;-55
2021/12/17 10:27:59;;;;;;;;;;;14.10;99.90;;;;;;5037731;28;874;-55
2021/12/17 10:30:26;;;;;;;;;;;14.20;99.90;;;;;;5034332;28;1366;-55
2021/12/17 10:32:54;;;;;;;;;;;14.10;99.90;;;;;;5022127;28;897;-55
2021/12/17 10:35:21;;;;;;;;;;;14.20;99.90;;;;;;5018836;28;1969;-55
2021/12/17 10:37:55;;;;;;;;;;;14.20;99.90;;;;;;5019099;28;872;-55
2021/12/17 10:40:21;;;;;;;;;;;14.20;99.90;;;;;;5019111;28;813;-55
2021/12/17 10:43:25;;;;;;;;;;;14.20;99.90;;;;;;5018497;28;881;-55
2021/12/17 10:45:57;;;;;;;;;;;14.20;99.90;;;;;;5014370;28;1547;-55
2021/12/17 10:54:28;;;;;;;;;;;14.20;99.90;;;;;;5019001;28;845;-55
2021/12/17 10:56:54;;;;;;;;;;;14.20;99.90;;;;;;5018793;28;1906;-55
2021/12/17 10:59:21;;;;;;;;;;;14.20;99.90;;;;;;5018678;28;896;-55
2021/12/17 11:01:47;;;;;;;;;;;14.20;99.90;;;;;;5018514;28;1250;-55
2021/12/17 11:04:15;;;;;;;;;;;14.20;99.90;;;;;;5017593;28;886;-55
2021/12/17 11:06:46;;;;;;;;;;;14.20;99.90;;;;;;5018673;28;884;-55
2021/12/17 11:09:34;;;;;;;;;;;14.30;99.90;;;;;;5018611;28;837;-55
2021/12/17 11:12:22;;;;;;;;;;;14.30;99.90;;;;;;5005481;28;1634;-55
2021/12/17 11:14:48;;;;;;;;;;;14.20;99.90;;;;;;5004878;28;1861;-55
2021/12/17 11:17:15;;;;;;;;;;;14.20;99.90;;;;;;5017872;28;1963;-55
2021/12/17 11:19:43;;;;;;;;;;;14.30;99.90;;;;;;5018360;28;904;-55
2021/12/17 11:22:10;;;;;;;;;;;14.30;99.90;;;;;;5017905;28;1106;-55
2021/12/17 11:24:37;;;;;;;;;;;14.30;99.90;;;;;;5018546;28;880;-55
2021/12/17 11:27:04;;;;;;;;;;;14.30;99.90;;;;;;5018500;28;908;-55
2021/12/17 11:29:32;;;;;;;;;;;14.30;99.90;;;;;;5018065;28;833;-55
2021/12/17 11:32:02;;;;;;;;;;;14.20;99.90;;;;;;5018057;28;841;-55
2021/12/17 11:34:30;;;;;;;;;;;14.30;99.90;;;;;;5018138;28;893;-55
2021/12/17 11:36:58;;;;;;;;;;;14.30;99.90;;;;;;5017599;28;1906;-55
2021/12/17 11:39:30;;;;;;;;;;;14.30;99.90;;;;;;5017958;28;798;-55
2021/12/17 11:42:18;;;;;;;;;;;14.20;99.90;;;;;;5017961;28;841;-55
2021/12/17 11:44:53;;;;;;;;;;;14.30;99.90;;;;;;5018003;28;1159;-55
2021/12/17 11:47:20;;;;;;;;;;;14.30;99.90;;;;;;5017906;28;872;-55
2021/12/17 11:49:50;;;;;;;;;;;14.20;99.90;;;;;;5017803;28;944;-55
2021/12/17 11:52:37;;;;;;;;;;;14.30;99.90;;;;;;5018336;28;921;-55
2021/12/17 11:55:21;;;;;;;;;;;14.20;99.90;;;;;;5017620;28;1910;-55
2021/12/17 11:57:58;;;;;;;;;;;14.20;99.90;;;;;;5017634;28;908;-55
2021/12/17 12:00:28;;;;;;;;;;;14.20;99.90;;;;;;5017445;28;960;-55
2021/12/17 12:03:14;;;;;;;;;;;14.20;99.90;;;;;;5014060;28;912;-55
2021/12/17 12:05:48;;;;;;;;;;;14.20;99.90;;;;;;5015668;28;997;-55
2021/12/17 12:08:24;;;;;;;;;;;14.20;99.90;;;;;;5035330;28;920;-55
2021/12/17 12:11:02;;;;;;;;;;;14.20;99.90;;;;;;5035441;28;897;-55
2021/12/17 12:13:34;;;;;;;;;;;14.20;99.90;;;;;;5035384;28;929;-55
2021/12/17 12:16:04;;;;;;;;;;;14.20;99.90;;;;;;5034852;28;1911;-55
2021/12/17 12:18:43;;;;;;;;;;;14.20;99.90;;;;;;5014429;28;815;-55
2021/12/17 12:21:16;;;;;;;;;;;14.20;99.90;;;;;;5016168;28;1202;-55
2021/12/17 12:23:51;;;;;;;;;;;14.20;99.90;;;;;;5017562;28;873;-55
2021/12/17 12:26:27;;;;;;;;;;;14.20;99.90;;;;;;5017592;28;825;-55
2021/12/17 12:29:05;;;;;;;;;;;14.20;99.90;;;;;;5017065;28;911;-55
2021/12/17 12:31:36;;;;;;;;;;;14.20;99.90;;;;;;5016964;28;889;-55
2021/12/17 12:34:08;;;;;;;;;;;14.30;99.90;;;;;;5016807;28;853;-55
2021/12/17 12:36:53;;;;;;;;;;;14.30;99.90;;;;;;5016598;28;1911;-55
2021/12/17 12:39:22;;;;;;;;;;;14.30;99.90;;;;;;5016864;28;928;-55
2021/12/17 12:42:07;;;;;;;;;;;14.30;99.90;;;;;;5016641;28;823;-55
2021/12/17 12:44:39;;;;;;;;;;;14.30;99.90;;;;;;5016113;28;889;-55
2021/12/17 12:50:20;;;;;;;;;;;14.30;99.90;;;;;;5014700;28;1291;-55
2021/12/17 12:52:51;;;;;;;;;;;14.30;99.90;;;;;;5016772;28;933;-55
2021/12/17 12:55:17;;;;;;;;;;;14.30;99.90;;;;;;4999191;28;1898;-54
2021/12/17 12:57:43;;;;;;;;;;;14.30;99.90;;;;;;5015919;28;873;-55
2021/12/17 13:00:11;;;;;;;;;;;14.30;99.90;;;;;;5016962;28;961;-55
2021/12/17 13:02:38;;;;;;;;;;;14.20;99.90;;;;;;5018039;28;1293;-55
2021/12/17 13:05:06;;;;;;;;;;;14.30;99.90;;;;;;5017160;28;905;-56
2021/12/17 13:07:38;;;;;;;;;;;14.30;99.90;;;;;;5016721;28;877;-54
2021/12/17 13:10:07;;;;;;;;;;;14.30;99.90;;;;;;5016777;28;848;-53
2021/12/17 13:12:35;;;;;;;;;;;14.20;99.90;;;;;;5016842;28;901;-55
2021/12/17 13:15:30;;;;;;;;;;;14.30;99.90;;;;;;5016492;28;909;-53
2021/12/17 13:23:29;;;;;;;;;;;14.30;99.90;;;;;;5016765;28;944;-56
2021/12/17 13:26:00;;;;;;;;;;;14.20;99.90;;;;;;5016522;28;858;-55
2021/12/17 13:28:28;;;;;;;;;;;14.20;99.90;;;;;;5015846;28;823;-55
2021/12/17 13:30:56;;;;;;;;;;;14.20;99.90;;;;;;5020078;28;918;-54
2021/12/17 13:33:35;;;;;;;;;;;14.20;99.90;;;;;;5020452;28;876;-53
2021/12/17 13:36:03;;;;;;;;;;;14.20;99.90;;;;;;5020493;28;1969;-53
2021/12/17 13:38:32;;;;;;;;;;;14.20;99.90;;;;;;5020529;28;886;-53
2021/12/17 13:40:59;;;;;;;;;;;14.20;99.90;;;;;;5020240;28;806;-53
2021/12/17 13:43:28;;;;;;;;;;;14.20;99.90;;;;;;5019966;28;889;-53
2021/12/17 13:45:58;;;;;;;;;;;14.20;99.90;;;;;;5020039;28;912;-53
2021/12/17 13:48:25;;;;;;;;;;;14.20;99.90;;;;;;5020275;28;852;-53
2021/12/17 13:50:51;;;;;;;;;;;14.20;99.90;;;;;;5019935;28;837;-53
2021/12/17 13:53:18;;;;;;;;;;;14.20;99.90;;;;;;5019564;28;1090;-54
2021/12/17 13:55:48;;;;;;;;;;;14.20;99.90;;;;;;5020073;28;1967;-53
2021/12/17 13:58:18;;;;;;;;;;;14.20;99.90;;;;;;5020041;28;829;-53
2021/12/17 14:00:46;;;;;;;;;;;14.20;99.90;;;;;;5019642;28;987;-53
2021/12/17 14:03:16;;;;;;;;;;;14.20;99.90;;;;;;5019332;28;981;-53
2021/12/17 14:06:01;;;;;;;;;;;14.20;99.90;;;;;;5019405;28;919;-53
2021/12/17 14:08:30;;;;;;;;;;;14.20;99.90;;;;;;5019398;28;1227;-53
2021/12/17 14:10:58;;;;;;;;;;;14.10;99.90;;;;;;5019768;28;798;-53
2021/12/17 14:13:26;;;;;;;;;;;14.10;99.90;;;;;;5013122;28;1113;-54
2021/12/17 14:15:55;;;;;;;;;;;14.10;99.90;;;;;;5012597;28;1977;-53
2021/12/17 14:18:22;;;;;;;;;;;14.20;99.90;;;;;;5011492;28;903;-53
2021/12/17 14:20:50;;;;;;;;;;;14.10;99.90;;;;;;5018839;28;829;-55
2021/12/17 14:23:17;;;;;;;;;;;14.20;99.90;;;;;;5012922;28;1186;-55
2021/12/17 14:25:45;;;;;;;;;;;14.20;99.90;;;;;;5013092;28;997;-55
2021/12/17 14:28:11;;;;;;;;;;;14.20;99.90;;;;;;5013089;28;935;-55
2021/12/17 14:30:37;;;;;;;;;;;14.20;99.90;;;;;;5018701;28;1028;-56
2021/12/17 14:33:07;;;;;;;;;;;14.20;99.90;;;;;;5018745;28;859;-55
2021/12/17 14:35:46;;;;;;;;;;;14.20;99.90;;;;;;5036598;28;1902;-54
2021/12/17 14:38:12;;;;;;;;;;;14.20;99.90;;;;;;5036944;28;969;-55
2021/12/17 14:43:25;;;;;;;;;;;14.20;99.90;;;;;;5037257;28;844;-53
2021/12/17 15:02:24;;;;;;;;;;;14.20;99.90;;;;;;5018578;28;825;-55
2021/12/17 15:04:50;;;;;;;;;;;14.20;99.90;;;;;;5001003;28;961;-54
2021/12/17 15:07:23;;;;;;;;;;;14.20;99.90;;;;;;5018936;28;825;-53
2021/12/17 15:09:49;;;;;;;;;;;14.20;99.90;;;;;;5018422;28;1242;-55
2021/12/17 15:15:01;;;;;;;;;;;14.20;99.90;;;;;;5036598;28;987;-54
2021/12/17 15:17:28;;;;;;;;;;;14.20;99.90;;;;;;5014698;28;1967;-55
2021/12/17 15:19:54;;;;;;;;;;;14.20;99.90;;;;;;5015167;28;904;-55
2021/12/17 15:22:20;;;;;;;;;;;14.10;99.90;;;;;;4968287;28;1179;-55
2021/12/17 15:24:47;;;;;;;;;;;14.10;99.90;;;;;;4997148;28;853;-55
2021/12/17 15:27:14;;;;;;;;;;;14.10;99.90;;;;;;4997027;28;920;-55
2021/12/17 15:29:40;;;;;;;;;;;14.10;99.90;;;;;;4997019;28;904;-55
2021/12/17 15:32:07;;;;;;;;;;;14.10;99.90;;;;;;5002310;28;900;-53
2021/12/17 15:34:33;;;;;;;;;;;14.10;99.90;;;;;;5014813;28;880;-53
2021/12/17 15:37:00;;;;;;;;;;;14.10;99.90;;;;;;4998329;28;1967;-55
2021/12/17 15:39:27;;;;;;;;;;;14.10;99.90;;;;;;5014852;28;849;-53
2021/12/17 15:41:53;;;;;;;;;;;14.10;99.90;;;;;;5014654;28;925;-53
2021/12/17 15:44:19;;;;;;;;;;;14.10;99.90;;;;;;5014731;28;798;-53
2021/12/17 15:46:45;;;;;;;;;;;14.10;99.90;;;;;;5014570;28;864;-55
2021/12/17 15:49:11;;;;;;;;;;;14.10;99.90;;;;;;5030525;28;870;-54
2021/12/17 15:51:38;;;;;;;;;;;14.10;99.90;;;;;;5026925;28;843;-56
2021/12/17 15:54:05;;;;;;;;;;;14.10;99.90;;;;;;5014571;28;960;-53
2021/12/17 15:56:32;;;;;;;;;;;14.10;99.90;;;;;;5016190;28;1914;-53
2021/12/17 15:58:59;;;;;;;;;;;14.10;99.90;;;;;;5005304;28;884;-54
2021/12/17 16:01:25;;;;;;;;;;;14.10;99.90;;;;;;5013841;28;1015;-53
2021/12/17 16:03:51;;;;;;;;;;;14.10;99.90;;;;;;5035952;28;998;-53
2021/12/17 16:06:17;;;;;;;;;;;14.10;99.90;;;;;;5035821;28;855;-54
2021/12/17 16:08:50;;;;;;;;;;;14.10;99.90;;;;;;5035694;28;862;-54
2021/12/17 16:11:37;;;;;;;;;;;14.10;99.90;;;;;;5035791;28;809;-53
2021/12/17 16:22:36;;;;;;;;;;;14.10;99.90;;;;;;5014157;28;1202;-54
2021/12/17 16:25:04;;;;;;;;;;;14.10;99.90;;;;;;5017268;28;798;-55
2021/12/17 16:27:30;;;;;;;;;;;14.00;99.90;;;;;;5017300;28;916;-55
2021/12/17 16:29:57;;;;;;;;;;;14.10;99.90;;;;;;4999525;28;976;-55
2021/12/17 16:32:23;;;;;;;;;;;14.10;99.90;;;;;;5016801;28;956;-55
2021/12/17 16:34:49;;;;;;;;;;;14.00;99.90;;;;;;5016429;28;1313;-54
2021/12/17 16:37:15;;;;;;;;;;;14.00;99.90;;;;;;5016998;28;1914;-54
2021/12/17 16:39:41;;;;;;;;;;;14.00;99.90;;;;;;5017248;28;848;-55
2021/12/17 16:42:16;;;;;;;;;;;14.00;99.90;;;;;;5035489;28;848;-53
2021/12/17 16:45:03;;;;;;;;;;;14.00;99.90;;;;;;5035326;28;800;-53
2021/12/17 16:47:30;;;;;;;;;;;14.00;99.90;;;;;;5034752;28;1133;-53
2021/12/17 16:49:59;;;;;;;;;;;14.00;99.90;;;;;;5034081;28;1072;-53
2021/12/17 16:52:28;;;;;;;;;;;14.00;99.90;;;;;;4998852;28;889;-53
2021/12/17 16:54:57;;;;;;;;;;;14.00;99.90;;;;;;4995660;28;943;-53
2021/12/17 16:57:24;;;;;;;;;;;14.00;99.90;;;;;;4995682;28;1902;-53
2021/12/17 16:59:51;;;;;;;;;;;14.00;99.90;;;;;;4995075;28;880;-55
2021/12/17 17:02:18;;;;;;;;;;;14.00;99.90;;;;;;4998647;28;1235;-55
2021/12/17 17:04:44;;;;;;;;;;;14.00;99.90;;;;;;4999155;28;1532;-55
2021/12/17 17:07:10;;;;;;;;;;;14.00;99.90;;;;;;4999196;28;1034;-55
2021/12/17 17:09:37;;;;;;;;;;;14.00;99.90;;;;;;4995150;28;962;-54
2021/12/17 17:12:08;;;;;;;;;;;14.00;99.90;;;;;;4999692;28;935;-53
2021/12/17 17:14:35;;;;;;;;;;;14.00;99.90;;;;;;4983470;28;943;-55
2021/12/17 17:17:05;;;;;;;;;;;14.10;99.90;;;;;;4999180;28;1902;-54
2021/12/17 17:19:32;;;;;;;;;;;14.10;99.90;;;;;;4951110;28;998;-53
2021/12/17 17:21:58;;;;;;;;;;;14.10;99.90;;;;;;4966247;28;1171;-53
2021/12/17 17:24:24;;;;;;;;;;;14.10;99.90;;;;;;5018305;28;914;-53
2021/12/17 17:26:52;;;;;;;;;;;14.10;99.90;;;;;;5020493;28;1069;-53
2021/12/17 17:29:19;;;;;;;;;;;14.00;99.90;;;;;;5020104;28;893;-53
2021/12/17 17:31:45;;;;;;;;;;;14.10;99.90;;;;;;5020600;28;1137;-53
2021/12/17 17:34:12;;;;;;;;;;;14.10;99.90;;;;;;5020387;28;886;-54
2021/12/17 17:36:40;;;;;;;;;;;14.00;99.90;;;;;;5020196;28;1922;-55
2021/12/17 17:39:09;;;;;;;;;;;14.10;99.90;;;;;;5020249;28;885;-55
2021/12/17 17:41:38;;;;;;;;;;;14.10;99.90;;;;;;5020148;28;941;-54
2021/12/17 17:44:04;;;;;;;;;;;14.10;99.90;;;;;;5019876;28;865;-54
2021/12/17 17:46:32;;;;;;;;;;;14.00;99.90;;;;;;5020271;28;977;-55
2021/12/17 17:48:58;;;;;;;;;;;14.10;99.90;;;;;;5019824;28;945;-55
2021/12/17 17:51:24;;;;;;;;;;;14.10;99.90;;;;;;5020291;28;898;-54
2021/12/17 17:53:50;;;;;;;;;;;14.10;99.90;;;;;;5020071;28;864;-55
2021/12/17 17:56:17;;;;;;;;;;;14.10;99.90;;;;;;5019155;28;1914;-55
2021/12/17 17:58:44;;;;;;;;;;;14.00;99.90;;;;;;5019874;28;905;-55
2021/12/17 18:01:11;;;;;;;;;;;14.00;99.90;;;;;;5021224;28;826;-55
2021/12/17 18:03:36;;;;;;;;;;;14.10;99.90;;;;;;5019838;28;889;-55
2021/12/17 18:06:03;;;;;;;;;;;14.10;99.90;;;;;;5019733;28;940;-55
2021/12/17 18:08:30;;;;;;;;;;;14.00;99.90;;;;;;5019932;28;849;-55
2021/12/17 18:10:56;;;;;;;;;;;14.00;99.90;;;;;;5019335;28;935;-55
2021/12/17 18:13:23;;;;;;;;;;;14.10;99.90;;;;;;5019058;28;865;-55
2021/12/17 18:15:51;;;;;;;;;;;14.10;99.90;;;;;;5014828;28;907;-54
2021/12/17 18:18:17;;;;;;;;;;;14.00;99.90;;;;;;5019283;28;1906;-54
2021/12/17 18:20:45;;;;;;;;;;;14.00;99.90;;;;;;5035313;28;990;-53